Time;durP1;ratioP1;P1;durP2;ratioP2;P2;SDS_P1;SDS_P2;PMS_P1;PMS_P2;Temp;Humidity;BMP_temperature;BMP_pressure;BME280_temperature;BME280_humidity;BME280_pressure;Samples;Min_cycle;Max_cycle;Signal;HPM_P1;HPM_P2
2021/06/10 00:00:05;;;;;;;;;;;;;;;;;;3555051;27;20014;-47
2021/06/10 00:01:46;;;;;;;;;;;;;;;;;;3552272;27;19958;-45
2021/06/10 00:03:27;;;;;;;;;;;;;;;;;;3553254;27;20317;-46
2021/06/10 00:05:08;;;;;;;;;;;;;;;;;;3555274;27;20375;-46
2021/06/10 00:06:49;;;;;;;;;;;;;;;;;;3552473;27;19927;-46
2021/06/10 00:08:32;;;;;;;;;;;;;;;;;;3555163;27;19927;-46
2021/06/10 00:10:13;;;;;;;;;;;;;;;;;;3552610;27;19934;-46
2021/06/10 00:11:54;;;;;;;;;;;;;;;;;;3555255;27;19962;-46
2021/06/10 00:13:35;;;;;;;;;;;;;;;;;;3558491;27;19933;-45
2021/06/10 00:15:17;;;;;;;;;;;;;;;;;;3556887;27;19927;-46
2021/06/10 00:16:58;;;;;;;;;;;;;;;;;;3557768;27;20013;-47
2021/06/10 00:18:40;;;;;;;;;;;;;;;;;;3554770;27;19980;-45
2021/06/10 00:20:21;;;;;;;;;;;;;;;;;;3556150;27;19965;-45
2021/06/10 00:22:02;;;;;;;;;;;;;;;;;;3555428;27;19931;-41
2021/06/10 00:23:43;;;;;;;;;;;;;;;;;;3558439;27;20030;-41
2021/06/10 00:25:24;;;;;;;;;;;;;;;;;;3554730;27;19927;-41
2021/06/10 00:27:04;;;;;;;;;;;;;;;;;;3556254;27;20033;-41
2021/06/10 00:28:45;;;;;;;;;;;;;;;;;;3561489;27;19927;-41
2021/06/10 00:30:26;;;;;;;;;;;;;;;;;;3554678;27;19933;-41
2021/06/10 00:32:08;;;;;;;;;;;;;;;;;;3557137;27;20296;-41
2021/06/10 00:33:48;;;;;;;;;;;;;;;;;;3554752;27;19993;-41
2021/06/10 00:35:30;;;;;;;;;;;;;;;;;;3556154;27;19966;-41
2021/06/10 00:37:11;;;;;;;;;;;;;;;;;;3554687;27;20386;-41
2021/06/10 00:38:52;;;;;;;;;;;;;;;;;;3556274;27;19927;-41
2021/06/10 00:40:33;;;;;;;;;;;;;;;;;;3557206;27;19933;-41
2021/06/10 00:42:14;;;;;;;;;;;;;;;;;;3554481;27;20030;-41
2021/06/10 00:43:55;;;;;;;;;;;;;;;;;;3557242;27;19931;-41
2021/06/10 00:45:36;;;;;;;;;;;;;;;;;;3554619;27;19959;-41
2021/06/10 00:47:17;;;;;;;;;;;;;;;;;;3557233;27;19937;-41
2021/06/10 00:48:58;;;;;;;;;;;;;;;;;;3554656;27;20289;-41
2021/06/10 00:50:38;;;;;;;;;;;;;;;;;;3557169;27;19966;-41
2021/06/10 00:52:19;;;;;;;;;;;;;;;;;;3556668;27;19927;-41
2021/06/10 00:54:00;;;;;;;;;;;;;;;;;;3554305;27;19977;-41
2021/06/10 00:55:41;;;;;;;;;;;;;;;;;;3556225;27;20375;-41
2021/06/10 00:57:22;;;;;;;;;;;;;;;;;;3554667;27;19927;-41
2021/06/10 00:59:03;;;;;;;;;;;;;;;;;;3557035;27;20025;-41
2021/06/10 01:00:44;;;;;;;;;;;;;;;;;;3554720;27;20548;-41
2021/06/10 01:02:25;;;;;;;;;;;;;;;;;;3556972;27;19931;-41
2021/06/10 01:04:06;;;;;;;;;;;;;;;;;;3555586;27;19927;-41
2021/06/10 01:05:47;;;;;;;;;;;;;;;;;;3555609;27;19926;-40
2021/06/10 01:07:28;;;;;;;;;;;;;;;;;;3557210;27;20021;-41
2021/06/10 01:09:08;;;;;;;;;;;;;;;;;;3554087;27;19973;-41
2021/06/10 01:10:49;;;;;;;;;;;;;;;;;;3556774;27;19934;-41
2021/06/10 01:12:30;;;;;;;;;;;;;;;;;;3554400;27;19932;-41
2021/06/10 01:14:11;;;;;;;;;;;;;;;;;;3554000;27;19927;-41
2021/06/10 01:15:52;;;;;;;;;;;;;;;;;;3554690;27;20458;-40
2021/06/10 01:17:33;;;;;;;;;;;;;;;;;;3556264;27;19927;-41
2021/06/10 01:19:14;;;;;;;;;;;;;;;;;;3557047;27;19926;-40
2021/06/10 01:20:55;;;;;;;;;;;;;;;;;;3554119;27;20007;-41
2021/06/10 01:22:36;;;;;;;;;;;;;;;;;;3556536;27;19934;-40
2021/06/10 01:24:17;;;;;;;;;;;;;;;;;;3554586;27;20066;-41
2021/06/10 01:25:58;;;;;;;;;;;;;;;;;;3558833;27;20097;-41
2021/06/10 01:27:39;;;;;;;;;;;;;;;;;;3553675;27;19926;-41
2021/06/10 01:29:20;;;;;;;;;;;;;;;;;;3555756;27;20025;-41
2021/06/10 01:31:01;;;;;;;;;;;;;;;;;;3554569;27;19926;-41
2021/06/10 01:32:41;;;;;;;;;;;;;;;;;;3553559;27;19931;-41
2021/06/10 01:34:22;;;;;;;;;;;;;;;;;;3556735;27;19934;-40
2021/06/10 01:36:03;;;;;;;;;;;;;;;;;;3553997;27;19934;-41
2021/06/10 01:37:44;;;;;;;;;;;;;;;;;;3556519;27;19953;-41
2021/06/10 01:39:25;;;;;;;;;;;;;;;;;;3554350;27;19966;-41
2021/06/10 01:41:06;;;;;;;;;;;;;;;;;;3562792;27;19952;-41
2021/06/10 01:42:47;;;;;;;;;;;;;;;;;;3566062;27;19934;-42
2021/06/10 01:44:28;;;;;;;;;;;;;;;;;;3554015;27;19974;-42
2021/06/10 01:46:11;;;;;;;;;;;;;;;;;;3556430;27;19927;-44
2021/06/10 01:47:52;;;;;;;;;;;;;;;;;;3554259;27;20029;-46
2021/06/10 01:49:35;;;;;;;;;;;;;;;;;;3556427;27;20395;-45
2021/06/10 01:51:16;;;;;;;;;;;;;;;;;;3554866;27;20067;-44
2021/06/10 01:52:57;;;;;;;;;;;;;;;;;;3554593;27;19948;-44
2021/06/10 01:54:38;;;;;;;;;;;;;;;;;;3556601;27;20009;-46
2021/06/10 01:56:19;;;;;;;;;;;;;;;;;;3554804;27;19949;-44
2021/06/10 01:58:00;;;;;;;;;;;;;;;;;;3556243;27;19927;-43
2021/06/10 01:59:41;;;;;;;;;;;;;;;;;;3553921;27;19926;-43
2021/06/10 02:01:22;;;;;;;;;;;;;;;;;;3556632;27;19927;-44
2021/06/10 02:03:02;;;;;;;;;;;;;;;;;;3553910;27;19933;-43
2021/06/10 02:04:43;;;;;;;;;;;;;;;;;;3555897;27;19934;-44
2021/06/10 02:06:24;;;;;;;;;;;;;;;;;;3555487;27;20009;-45
2021/06/10 02:08:05;;;;;;;;;;;;;;;;;;3553460;27;20300;-43
2021/06/10 02:09:46;;;;;;;;;;;;;;;;;;3556228;27;19955;-45
2021/06/10 02:11:27;;;;;;;;;;;;;;;;;;3553882;27;19971;-43
2021/06/10 02:13:08;;;;;;;;;;;;;;;;;;3555128;27;20013;-43
2021/06/10 02:14:49;;;;;;;;;;;;;;;;;;3568219;27;19927;-44
2021/06/10 02:16:30;;;;;;;;;;;;;;;;;;3555115;27;20460;-44
2021/06/10 02:18:11;;;;;;;;;;;;;;;;;;3555930;27;20383;-44
2021/06/10 02:19:52;;;;;;;;;;;;;;;;;;3553628;27;19979;-44
2021/06/10 02:21:33;;;;;;;;;;;;;;;;;;3555860;27;19989;-45
2021/06/10 02:23:14;;;;;;;;;;;;;;;;;;3553470;27;19993;-45
2021/06/10 02:24:55;;;;;;;;;;;;;;;;;;3556266;27;19962;-44
2021/06/10 02:26:36;;;;;;;;;;;;;;;;;;3553443;27;20388;-46
2021/06/10 02:28:17;;;;;;;;;;;;;;;;;;3555966;27;19927;-44
2021/06/10 02:29:57;;;;;;;;;;;;;;;;;;3555366;27;19953;-45
2021/06/10 02:31:38;;;;;;;;;;;;;;;;;;3553960;27;20372;-44
2021/06/10 02:33:19;;;;;;;;;;;;;;;;;;3555157;27;19970;-44
2021/06/10 02:35:00;;;;;;;;;;;;;;;;;;3552937;27;20030;-44
2021/06/10 02:36:41;;;;;;;;;;;;;;;;;;3556981;27;20447;-44
2021/06/10 02:38:22;;;;;;;;;;;;;;;;;;3553529;27;20029;-44
2021/06/10 02:40:03;;;;;;;;;;;;;;;;;;3556255;27;19927;-49
2021/06/10 02:41:44;;;;;;;;;;;;;;;;;;3552921;27;20443;-49
2021/06/10 02:43:25;;;;;;;;;;;;;;;;;;3554670;27;19987;-48
2021/06/10 02:45:06;;;;;;;;;;;;;;;;;;3556082;27;19926;-47
2021/06/10 02:46:47;;;;;;;;;;;;;;;;;;3552998;27;20026;-47
2021/06/10 02:48:28;;;;;;;;;;;;;;;;;;3555084;27;19927;-49
2021/06/10 02:50:09;;;;;;;;;;;;;;;;;;3553255;27;19971;-48
2021/06/10 02:51:50;;;;;;;;;;;;;;;;;;3554630;27;19987;-47
2021/06/10 02:53:31;;;;;;;;;;;;;;;;;;3552931;27;19933;-47
2021/06/10 02:55:12;;;;;;;;;;;;;;;;;;3554748;27;19927;-46
2021/06/10 02:56:53;;;;;;;;;;;;;;;;;;3554822;27;19994;-46
2021/06/10 02:58:34;;;;;;;;;;;;;;;;;;3553034;27;19975;-48
2021/06/10 03:00:15;;;;;;;;;;;;;;;;;;3556955;27;19937;-46
2021/06/10 03:01:56;;;;;;;;;;;;;;;;;;3553220;27;20394;-47
2021/06/10 03:03:37;;;;;;;;;;;;;;;;;;3554512;27;20383;-48
2021/06/10 03:05:17;;;;;;;;;;;;;;;;;;3553002;27;19926;-46
2021/06/10 03:06:59;;;;;;;;;;;;;;;;;;3554814;27;19927;-47
2021/06/10 03:08:39;;;;;;;;;;;;;;;;;;3553739;27;19974;-46
2021/06/10 03:10:20;;;;;;;;;;;;;;;;;;3552766;27;19934;-49
2021/06/10 03:12:01;;;;;;;;;;;;;;;;;;3555695;27;19973;-46
2021/06/10 03:13:42;;;;;;;;;;;;;;;;;;3551687;27;19927;-47
2021/06/10 03:15:23;;;;;;;;;;;;;;;;;;3555763;27;19975;-47
2021/06/10 03:17:04;;;;;;;;;;;;;;;;;;3557033;27;19930;-48
2021/06/10 03:18:45;;;;;;;;;;;;;;;;;;3554673;27;20381;-47
2021/06/10 03:20:26;;;;;;;;;;;;;;;;;;3553753;27;19927;-47
2021/06/10 03:22:07;;;;;;;;;;;;;;;;;;3553282;27;20517;-48
2021/06/10 03:23:48;;;;;;;;;;;;;;;;;;3554226;27;20054;-50
2021/06/10 03:25:29;;;;;;;;;;;;;;;;;;3553123;27;20060;-45
2021/06/10 03:27:10;;;;;;;;;;;;;;;;;;3555610;27;19979;-44
2021/06/10 03:28:51;;;;;;;;;;;;;;;;;;3552897;27;20399;-45
2021/06/10 03:30:32;;;;;;;;;;;;;;;;;;3554463;27;19927;-48
2021/06/10 03:32:13;;;;;;;;;;;;;;;;;;3554267;27;19927;-47
2021/06/10 03:33:54;;;;;;;;;;;;;;;;;;3553719;27;20311;-46
2021/06/10 03:35:35;;;;;;;;;;;;;;;;;;3554433;27;20407;-47
2021/06/10 03:37:16;;;;;;;;;;;;;;;;;;3552621;27;20378;-45
2021/06/10 03:38:57;;;;;;;;;;;;;;;;;;3554015;27;19927;-46
2021/06/10 03:40:40;;;;;;;;;;;;;;;;;;3552822;27;20302;-48
2021/06/10 03:42:21;;;;;;;;;;;;;;;;;;3554090;27;20022;-47
2021/06/10 03:44:02;;;;;;;;;;;;;;;;;;3552167;27;20421;-47
2021/06/10 03:45:43;;;;;;;;;;;;;;;;;;3554199;27;19970;-45
2021/06/10 03:47:24;;;;;;;;;;;;;;;;;;3555724;27;19927;-44
2021/06/10 03:49:05;;;;;;;;;;;;;;;;;;3555463;27;19984;-44
2021/06/10 03:50:46;;;;;;;;;;;;;;;;;;3557676;27;20435;-43
2021/06/10 03:52:27;;;;;;;;;;;;;;;;;;3555316;27;19927;-44
2021/06/10 03:54:08;;;;;;;;;;;;;;;;;;3556440;27;19927;-45
2021/06/10 03:55:49;;;;;;;;;;;;;;;;;;3555602;27;19978;-43
2021/06/10 03:57:30;;;;;;;;;;;;;;;;;;3557266;27;19973;-44
2021/06/10 03:59:11;;;;;;;;;;;;;;;;;;3558147;27;19940;-45
2021/06/10 04:00:52;;;;;;;;;;;;;;;;;;3554769;27;19927;-44
2021/06/10 04:02:33;;;;;;;;;;;;;;;;;;3558208;27;19934;-46
2021/06/10 04:04:14;;;;;;;;;;;;;;;;;;3555234;27;20349;-47
2021/06/10 04:05:55;;;;;;;;;;;;;;;;;;3557531;27;20358;-45
2021/06/10 04:07:36;;;;;;;;;;;;;;;;;;3554755;27;20415;-48
2021/06/10 04:09:17;;;;;;;;;;;;;;;;;;3557930;27;19927;-48
2021/06/10 04:10:58;;;;;;;;;;;;;;;;;;3557782;27;20422;-46
2021/06/10 04:12:39;;;;;;;;;;;;;;;;;;3554928;27;19927;-46
2021/06/10 04:14:20;;;;;;;;;;;;;;;;;;3561915;27;19933;-46
2021/06/10 04:16:01;;;;;;;;;;;;;;;;;;3554899;27;19967;-46
2021/06/10 04:17:42;;;;;;;;;;;;;;;;;;3557423;27;19927;-46
2021/06/10 04:19:23;;;;;;;;;;;;;;;;;;3555247;27;19927;-46
2021/06/10 04:21:04;;;;;;;;;;;;;;;;;;3556024;27;19927;-44
2021/06/10 04:22:45;;;;;;;;;;;;;;;;;;3557067;27;19931;-45
2021/06/10 04:24:26;;;;;;;;;;;;;;;;;;3555417;27;20297;-46
2021/06/10 04:26:07;;;;;;;;;;;;;;;;;;3558349;27;19927;-46
2021/06/10 04:27:48;;;;;;;;;;;;;;;;;;3555838;27;19934;-45
2021/06/10 04:29:29;;;;;;;;;;;;;;;;;;3558059;27;20026;-46
2021/06/10 04:31:10;;;;;;;;;;;;;;;;;;3555304;27;19969;-45
2021/06/10 04:32:51;;;;;;;;;;;;;;;;;;3556502;27;19927;-44
2021/06/10 04:34:32;;;;;;;;;;;;;;;;;;3556445;27;19985;-44
2021/06/10 04:36:13;;;;;;;;;;;;;;;;;;3555718;27;19926;-44
2021/06/10 04:37:54;;;;;;;;;;;;;;;;;;3557423;27;19931;-45
2021/06/10 04:39:36;;;;;;;;;;;;;;;;;;3554625;27;19934;-44
2021/06/10 04:41:17;;;;;;;;;;;;;;;;;;3555616;27;19927;-44
2021/06/10 04:42:58;;;;;;;;;;;;;;;;;;3554743;27;19966;-44
2021/06/10 04:44:39;;;;;;;;;;;;;;;;;;3555968;27;19933;-44
2021/06/10 04:46:20;;;;;;;;;;;;;;;;;;3556202;27;19934;-45
2021/06/10 04:48:01;;;;;;;;;;;;;;;;;;3556350;27;19927;-46
2021/06/10 04:49:41;;;;;;;;;;;;;;;;;;3555783;27;20405;-47
2021/06/10 04:51:22;;;;;;;;;;;;;;;;;;3554565;27;19958;-47
2021/06/10 04:53:04;;;;;;;;;;;;;;;;;;3557418;27;20418;-46
2021/06/10 04:54:45;;;;;;;;;;;;;;;;;;3554830;27;19933;-47
2021/06/10 04:56:26;;;;;;;;;;;;;;;;;;3557050;27;19949;-46
2021/06/10 04:58:07;;;;;;;;;;;;;;;;;;3553731;27;19934;-46
2021/06/10 04:59:48;;;;;;;;;;;;;;;;;;3556079;27;19927;-45
2021/06/10 05:01:29;;;;;;;;;;;;;;;;;;3557542;27;19930;-44
2021/06/10 05:03:10;;;;;;;;;;;;;;;;;;3554343;27;19927;-45
2021/06/10 05:04:51;;;;;;;;;;;;;;;;;;3555598;27;20323;-44
2021/06/10 05:06:32;;;;;;;;;;;;;;;;;;3554611;27;20018;-45
2021/06/10 05:08:13;;;;;;;;;;;;;;;;;;3557081;27;19927;-46
2021/06/10 05:09:54;;;;;;;;;;;;;;;;;;3560636;27;20012;-44
2021/06/10 05:11:35;;;;;;;;;;;;;;;;;;3554627;27;19927;-44
2021/06/10 05:13:16;;;;;;;;;;;;;;;;;;3554780;27;19930;-45
2021/06/10 05:14:57;;;;;;;;;;;;;;;;;;3554169;27;20486;-44
2021/06/10 05:16:38;;;;;;;;;;;;;;;;;;3557377;27;20285;-45
2021/06/10 05:18:19;;;;;;;;;;;;;;;;;;3554355;27;20280;-50
2021/06/10 05:20:00;;;;;;;;;;;;;;;;;;3555456;27;20034;-48
2021/06/10 05:21:41;;;;;;;;;;;;;;;;;;3554158;27;19966;-46
2021/06/10 05:23:22;;;;;;;;;;;;;;;;;;3555538;27;19979;-47
2021/06/10 05:25:03;;;;;;;;;;;;;;;;;;3555944;27;20363;-45
2021/06/10 05:26:44;;;;;;;;;;;;;;;;;;3553950;27;19973;-47
2021/06/10 05:28:25;;;;;;;;;;;;;;;;;;3555869;27;19927;-46
2021/06/10 05:30:06;;;;;;;;;;;;;;;;;;3554113;27;19974;-46
2021/06/10 05:31:47;;;;;;;;;;;;;;;;;;3556574;27;19970;-46
2021/06/10 05:33:28;;;;;;;;;;;;;;;;;;3554419;27;20362;-46
2021/06/10 05:35:09;;;;;;;;;;;;;;;;;;3556714;27;19927;-47
2021/06/10 05:36:50;;;;;;;;;;;;;;;;;;3554143;27;19934;-46
2021/06/10 05:38:31;;;;;;;;;;;;;;;;;;3555283;27;19934;-49
2021/06/10 05:40:12;;;;;;;;;;;;;;;;;;3555321;27;19931;-47
2021/06/10 05:41:53;;;;;;;;;;;;;;;;;;3554115;27;19972;-43
2021/06/10 05:43:35;;;;;;;;;;;;;;;;;;3556674;27;19978;-45
2021/06/10 05:45:16;;;;;;;;;;;;;;;;;;3554143;27;19927;-44
2021/06/10 05:46:57;;;;;;;;;;;;;;;;;;3556043;27;20439;-44
2021/06/10 05:48:39;;;;;;;;;;;;;;;;;;3555273;27;19927;-44
2021/06/10 05:50:20;;;;;;;;;;;;;;;;;;3554307;27;19927;-46
2021/06/10 05:52:01;;;;;;;;;;;;;;;;;;3555728;27;19933;-46
2021/06/10 05:53:42;;;;;;;;;;;;;;;;;;3553667;27;20153;-47
2021/06/10 05:55:23;;;;;;;;;;;;;;;;;;3556476;27;19927;-47
2021/06/10 05:57:04;;;;;;;;;;;;;;;;;;3554042;27;19969;-46
2021/06/10 05:58:45;;;;;;;;;;;;;;;;;;3556416;27;19927;-46
2021/06/10 06:00:26;;;;;;;;;;;;;;;;;;3553733;27;19931;-47
2021/06/10 06:02:07;;;;;;;;;;;;;;;;;;3555622;27;20369;-49
2021/06/10 06:03:48;;;;;;;;;;;;;;;;;;3556466;27;19939;-46
2021/06/10 06:05:29;;;;;;;;;;;;;;;;;;3554754;27;19933;-46
2021/06/10 06:07:10;;;;;;;;;;;;;;;;;;3561742;27;19970;-47
2021/06/10 06:08:51;;;;;;;;;;;;;;;;;;3553962;27;19927;-46
2021/06/10 06:10:32;;;;;;;;;;;;;;;;;;3554171;27;19959;-44
2021/06/10 06:12:15;;;;;;;;;;;;;;;;;;3553393;27;20025;-45
2021/06/10 06:14:06;;;;;;;;;;;;;;;;;;3555000;27;19931;-44
2021/06/10 06:15:47;;;;;;;;;;;;;;;;;;3553755;27;19997;-44
2021/06/10 06:17:28;;;;;;;;;;;;;;;;;;3553388;27;19927;-45
2021/06/10 06:19:11;;;;;;;;;;;;;;;;;;3554896;27;19933;-46
2021/06/10 06:20:51;;;;;;;;;;;;;;;;;;3553706;27;19958;-46
2021/06/10 06:22:32;;;;;;;;;;;;;;;;;;3555143;27;20017;-46
2021/06/10 06:24:14;;;;;;;;;;;;;;;;;;3554537;27;20011;-46
2021/06/10 06:25:55;;;;;;;;;;;;;;;;;;3554029;27;20399;-46
2021/06/10 06:27:36;;;;;;;;;;;;;;;;;;3556197;27;19933;-46
2021/06/10 06:29:17;;;;;;;;;;;;;;;;;;3553364;27;20448;-47
2021/06/10 06:30:58;;;;;;;;;;;;;;;;;;3554770;27;19934;-46
2021/06/10 06:32:39;;;;;;;;;;;;;;;;;;3553716;27;20035;-46
2021/06/10 06:34:20;;;;;;;;;;;;;;;;;;3554873;27;19933;-48
2021/06/10 06:36:01;;;;;;;;;;;;;;;;;;3554029;27;19935;-46
2021/06/10 06:37:42;;;;;;;;;;;;;;;;;;3555481;27;19927;-44
2021/06/10 06:39:23;;;;;;;;;;;;;;;;;;3556297;27;19995;-46
2021/06/10 06:41:05;;;;;;;;;;;;;;;;;;3553518;27;19933;-46
2021/06/10 06:42:46;;;;;;;;;;;;;;;;;;3554696;27;20026;-46
2021/06/10 06:44:27;;;;;;;;;;;;;;;;;;3553731;27;19927;-47
2021/06/10 06:46:09;;;;;;;;;;;;;;;;;;3555735;27;19927;-46
2021/06/10 06:47:50;;;;;;;;;;;;;;;;;;3553060;27;20022;-45
2021/06/10 06:49:31;;;;;;;;;;;;;;;;;;3554875;27;20341;-47
2021/06/10 06:51:12;;;;;;;;;;;;;;;;;;3554679;27;19934;-48
2021/06/10 06:52:53;;;;;;;;;;;;;;;;;;3552925;27;19934;-47
2021/06/10 06:54:34;;;;;;;;;;;;;;;;;;3555906;27;20384;-46
2021/06/10 06:56:15;;;;;;;;;;;;;;;;;;3553226;27;19937;-45
2021/06/10 06:57:57;;;;;;;;;;;;;;;;;;3554467;27;19927;-47
2021/06/10 06:59:39;;;;;;;;;;;;;;;;;;3553204;27;19958;-47
2021/06/10 07:01:20;;;;;;;;;;;;;;;;;;3553664;27;19927;-46
2021/06/10 07:03:01;;;;;;;;;;;;;;;;;;3564446;27;19926;-43
2021/06/10 07:04:42;;;;;;;;;;;;;;;;;;3552698;27;19933;-43
2021/06/10 07:06:23;;;;;;;;;;;;;;;;;;3554643;27;20444;-44
2021/06/10 07:08:04;;;;;;;;;;;;;;;;;;3553165;27;19927;-43
2021/06/10 07:09:45;;;;;;;;;;;;;;;;;;3554363;27;20472;-43
2021/06/10 07:11:26;;;;;;;;;;;;;;;;;;3553361;27;19982;-46
2021/06/10 07:13:07;;;;;;;;;;;;;;;;;;3555378;27;20018;-48
2021/06/10 07:14:48;;;;;;;;;;;;;;;;;;3566494;27;20446;-46
2021/06/10 07:16:29;;;;;;;;;;;;;;;;;;3554181;27;19927;-46
2021/06/10 07:18:10;;;;;;;;;;;;;;;;;;3554489;27;19927;-46
2021/06/10 07:19:52;;;;;;;;;;;;;;;;;;3553153;27;19927;-45
2021/06/10 07:21:33;;;;;;;;;;;;;;;;;;3555272;27;20337;-43
2021/06/10 07:23:14;;;;;;;;;;;;;;;;;;3553254;27;19927;-43
2021/06/10 07:24:55;;;;;;;;;;;;;;;;;;3554135;27;19930;-43
2021/06/10 07:26:36;;;;;;;;;;;;;;;;;;3554392;27;19966;-43
2021/06/10 07:28:17;;;;;;;;;;;;;;;;;;3554211;27;20040;-46
2021/06/10 07:29:59;;;;;;;;;;;;;;;;;;3555557;27;19931;-47
2021/06/10 07:31:40;;;;;;;;;;;;;;;;;;3552677;27;19927;-47
2021/06/10 07:33:21;;;;;;;;;;;;;;;;;;3555444;27;19933;-46
2021/06/10 07:35:02;;;;;;;;;;;;;;;;;;3553133;27;20311;-45
2021/06/10 07:36:43;;;;;;;;;;;;;;;;;;3553863;27;20018;-45
2021/06/10 07:38:24;;;;;;;;;;;;;;;;;;3554456;27;19973;-43
2021/06/10 07:40:05;;;;;;;;;;;;;;;;;;3554226;27;20391;-43
2021/06/10 07:41:46;;;;;;;;;;;;;;;;;;3554376;27;20013;-43
2021/06/10 07:43:27;;;;;;;;;;;;;;;;;;3552920;27;19927;-44
2021/06/10 07:45:08;;;;;;;;;;;;;;;;;;3555566;27;19979;-47
2021/06/10 07:46:49;;;;;;;;;;;;;;;;;;3552831;27;19927;-46
2021/06/10 07:48:30;;;;;;;;;;;;;;;;;;3555456;27;20303;-45
2021/06/10 07:50:11;;;;;;;;;;;;;;;;;;3553280;27;19934;-44
2021/06/10 07:51:52;;;;;;;;;;;;;;;;;;3554607;27;20023;-44
2021/06/10 07:53:33;;;;;;;;;;;;;;;;;;3555693;27;19930;-44
2021/06/10 07:55:14;;;;;;;;;;;;;;;;;;3552976;27;19931;-45
2021/06/10 07:56:55;;;;;;;;;;;;;;;;;;3553642;27;19931;-44
2021/06/10 07:58:36;;;;;;;;;;;;;;;;;;3559131;27;19937;-44
2021/06/10 08:00:17;;;;;;;;;;;;;;;;;;3558579;27;20463;-46
2021/06/10 08:01:58;;;;;;;;;;;;;;;;;;3553063;27;19927;-45
2021/06/10 08:03:39;;;;;;;;;;;;;;;;;;3554159;27;20345;-44
2021/06/10 08:05:20;;;;;;;;;;;;;;;;;;3553856;27;20063;-48
2021/06/10 08:07:01;;;;;;;;;;;;;;;;;;3552593;27;19970;-45
2021/06/10 08:08:42;;;;;;;;;;;;;;;;;;3555123;27;19926;-44
2021/06/10 08:10:23;;;;;;;;;;;;;;;;;;3552841;27;20380;-44
2021/06/10 08:12:04;;;;;;;;;;;;;;;;;;3552650;27;19927;-47
2021/06/10 08:13:45;;;;;;;;;;;;;;;;;;3557769;27;20037;-46
2021/06/10 08:15:26;;;;;;;;;;;;;;;;;;3555778;27;20054;-49
2021/06/10 08:17:07;;;;;;;;;;;;;;;;;;3554399;27;19934;-48
2021/06/10 08:18:48;;;;;;;;;;;;;;;;;;3552442;27;19934;-46
2021/06/10 08:20:30;;;;;;;;;;;;;;;;;;3555194;27;20004;-48
2021/06/10 08:22:11;;;;;;;;;;;;;;;;;;3552334;27;19979;-46
2021/06/10 08:23:52;;;;;;;;;;;;;;;;;;3554923;27;20018;-46
2021/06/10 08:25:33;;;;;;;;;;;;;;;;;;3552601;27;19927;-47
2021/06/10 08:27:14;;;;;;;;;;;;;;;;;;3554898;27;19927;-46
2021/06/10 08:28:55;;;;;;;;;;;;;;;;;;3554174;27;19938;-45
2021/06/10 08:30:36;;;;;;;;;;;;;;;;;;3553406;27;20052;-46
2021/06/10 08:32:17;;;;;;;;;;;;;;;;;;3552610;27;20427;-44
2021/06/10 08:33:58;;;;;;;;;;;;;;;;;;3554656;27;19931;-43
2021/06/10 08:35:39;;;;;;;;;;;;;;;;;;3557303;27;19931;-43
2021/06/10 08:37:20;;;;;;;;;;;;;;;;;;3554936;27;19933;-43
2021/06/10 08:39:01;;;;;;;;;;;;;;;;;;3558502;27;19963;-46
2021/06/10 08:40:41;;;;;;;;;;;;;;;;;;3555710;27;20372;-45
2021/06/10 08:42:23;;;;;;;;;;;;;;;;;;3555307;27;19927;-45
2021/06/10 08:44:04;;;;;;;;;;;;;;;;;;3556082;27;19991;-46
2021/06/10 08:45:47;;;;;;;;;;;;;;;;;;3554324;27;20021;-45
2021/06/10 08:47:28;;;;;;;;;;;;;;;;;;3556137;27;19927;-43
2021/06/10 08:49:09;;;;;;;;;;;;;;;;;;3554777;27;19987;-43
2021/06/10 08:50:50;;;;;;;;;;;;;;;;;;3557021;27;19927;-42
2021/06/10 08:52:31;;;;;;;;;;;;;;;;;;3555284;27;19958;-44
2021/06/10 08:54:12;;;;;;;;;;;;;;;;;;3557289;27;19927;-46
2021/06/10 08:55:55;;;;;;;;;;;;;;;;;;3566567;27;19934;-45
2021/06/10 08:57:36;;;;;;;;;;;;;;;;;;3554248;27;19995;-45
2021/06/10 08:59:36;;;;;;;;;;;;;;;;;;3557588;27;19951;-45
2021/06/10 09:01:20;;;;;;;;;;;;;;;;;;3554364;27;19927;-45
2021/06/10 09:03:01;;;;;;;;;;;;;;;;;;3557282;27;19927;-45
2021/06/10 09:04:42;;;;;;;;;;;;;;;;;;3557548;27;19927;-45
2021/06/10 09:06:23;;;;;;;;;;;;;;;;;;3554478;27;20025;-42
2021/06/10 09:08:05;;;;;;;;;;;;;;;;;;3557043;27;20403;-42
2021/06/10 09:09:48;;;;;;;;;;;;;;;;;;3554568;27;20529;-42
2021/06/10 09:11:31;;;;;;;;;;;;;;;;;;3556163;27;19961;-42
2021/06/10 09:13:12;;;;;;;;;;;;;;;;;;3554603;27;19966;-42
2021/06/10 09:14:52;;;;;;;;;;;;;;;;;;3557379;27;20378;-43
2021/06/10 09:16:33;;;;;;;;;;;;;;;;;;3556292;27;19926;-41
2021/06/10 09:18:15;;;;;;;;;;;;;;;;;;3554369;27;19934;-42
2021/06/10 09:19:56;;;;;;;;;;;;;;;;;;3557221;27;19978;-43
2021/06/10 09:21:53;;;;;;;;;;;;;;;;;;3554183;27;19927;-42
2021/06/10 09:23:33;;;;;;;;;;;;;;;;;;3554662;27;19933;-43
2021/06/10 09:25:16;;;;;;;;;;;;;;;;;;3554346;27;19934;-45
2021/06/10 09:26:57;;;;;;;;;;;;;;;;;;3555031;27;19962;-43
2021/06/10 09:28:38;;;;;;;;;;;;;;;;;;3556907;27;19927;-44
2021/06/10 09:30:19;;;;;;;;;;;;;;;;;;3554127;27;19955;-46
2021/06/10 09:32:00;;;;;;;;;;;;;;;;;;3555512;27;20417;-49
2021/06/10 09:33:41;;;;;;;;;;;;;;;;;;3554086;27;19949;-47
2021/06/10 09:35:22;;;;;;;;;;;;;;;;;;3555355;27;19967;-49
2021/06/10 09:37:03;;;;;;;;;;;;;;;;;;3554839;27;19931;-50
2021/06/10 09:38:43;;;;;;;;;;;;;;;;;;3556611;27;20029;-50
2021/06/10 09:40:24;;;;;;;;;;;;;;;;;;3555530;27;19962;-48
2021/06/10 09:42:06;;;;;;;;;;;;;;;;;;3553750;27;20045;-48
2021/06/10 09:43:47;;;;;;;;;;;;;;;;;;3555002;27;20303;-49
2021/06/10 09:45:28;;;;;;;;;;;;;;;;;;3553050;27;19927;-46
2021/06/10 09:47:09;;;;;;;;;;;;;;;;;;3556614;27;20403;-47
2021/06/10 09:48:50;;;;;;;;;;;;;;;;;;3554514;27;20026;-48
2021/06/10 09:50:30;;;;;;;;;;;;;;;;;;3555600;27;19973;-47
2021/06/10 09:52:11;;;;;;;;;;;;;;;;;;3555721;27;20351;-47
2021/06/10 09:53:52;;;;;;;;;;;;;;;;;;3555147;27;19934;-47
2021/06/10 09:55:41;;;;;;;;;;;;;;;;;;3555587;27;19976;-48
2021/06/10 09:57:22;;;;;;;;;;;;;;;;;;3554738;27;19963;-43
2021/06/10 09:59:04;;;;;;;;;;;;;;;;;;3556623;27;19931;-42
2021/06/10 10:00:45;;;;;;;;;;;;;;;;;;3554938;27;20392;-48
2021/06/10 10:02:26;;;;;;;;;;;;;;;;;;3555566;27;19938;-47
2021/06/10 10:04:07;;;;;;;;;;;;;;;;;;3556621;27;20232;-47
2021/06/10 10:05:47;;;;;;;;;;;;;;;;;;3553577;27;19927;-47
2021/06/10 10:07:28;;;;;;;;;;;;;;;;;;3555123;27;20464;-47
2021/06/10 10:09:11;;;;;;;;;;;;;;;;;;3553715;27;19976;-46
2021/06/10 10:10:52;;;;;;;;;;;;;;;;;;3556180;27;20399;-46
2021/06/10 10:12:33;;;;;;;;;;;;;;;;;;3553817;27;19933;-46
2021/06/10 10:14:14;;;;;;;;;;;;;;;;;;3555794;27;19981;-47
2021/06/10 10:15:54;;;;;;;;;;;;;;;;;;3556395;27;19927;-48
2021/06/10 10:17:35;;;;;;;;;;;;;;;;;;3553708;27;20135;-42
2021/06/10 10:19:16;;;;;;;;;;;;;;;;;;3556525;27;19937;-44
2021/06/10 10:21:01;;;;;;;;;;;;;;;;;;3553778;27;19927;-43
2021/06/10 10:22:42;;;;;;;;;;;;;;;;;;3554461;27;20311;-44
2021/06/10 10:24:23;;;;;;;;;;;;;;;;;;3553363;27;20013;-44
2021/06/10 10:26:03;;;;;;;;;;;;;;;;;;3554358;27;20356;-42
2021/06/10 10:27:45;;;;;;;;;;;;;;;;;;3554408;27;19973;-42
2021/06/10 10:29:26;;;;;;;;;;;;;;;;;;3554215;27;19931;-42
2021/06/10 10:31:07;;;;;;;;;;;;;;;;;;3554812;27;20367;-47
2021/06/10 10:32:48;;;;;;;;;;;;;;;;;;3553539;27;20019;-47
2021/06/10 10:34:29;;;;;;;;;;;;;;;;;;3556299;27;19952;-42
2021/06/10 10:36:11;;;;;;;;;;;;;;;;;;3553397;27;19934;-42
2021/06/10 10:37:51;;;;;;;;;;;;;;;;;;3556038;27;19975;-42
2021/06/10 10:39:34;;;;;;;;;;;;;;;;;;3553961;27;19938;-43
2021/06/10 10:41:18;;;;;;;;;;;;;;;;;;3553387;27;19933;-46
2021/06/10 10:42:59;;;;;;;;;;;;;;;;;;3555816;27;20314;-45
2021/06/10 10:44:40;;;;;;;;;;;;;;;;;;3553222;27;19927;-46
2021/06/10 10:46:21;;;;;;;;;;;;;;;;;;3555803;27;19938;-48
2021/06/10 10:48:05;;;;;;;;;;;;;;;;;;3553741;27;20080;-46
2021/06/10 10:49:46;;;;;;;;;;;;;;;;;;3554379;27;19938;-48
2021/06/10 10:51:30;;;;;;;;;;;;;;;;;;3555686;27;20299;-47
2021/06/10 10:53:14;;;;;;;;;;;;;;;;;;3553388;27;19927;-44
2021/06/10 10:54:55;;;;;;;;;;;;;;;;;;3554592;27;19977;-43
2021/06/10 10:56:36;;;;;;;;;;;;;;;;;;3552813;27;19938;-43
2021/06/10 10:58:17;;;;;;;;;;;;;;;;;;3555706;27;20405;-42
2021/06/10 10:59:58;;;;;;;;;;;;;;;;;;3553168;27;20018;-42
2021/06/10 11:01:38;;;;;;;;;;;;;;;;;;3554812;27;19927;-43
2021/06/10 11:03:20;;;;;;;;;;;;;;;;;;3555105;27;19930;-46
2021/06/10 11:05:01;;;;;;;;;;;;;;;;;;3554032;27;19949;-46
2021/06/10 11:06:42;;;;;;;;;;;;;;;;;;3555702;27;19927;-46
2021/06/10 11:08:25;;;;;;;;;;;;;;;;;;3553173;27;19970;-48
2021/06/10 11:10:06;;;;;;;;;;;;;;;;;;3554312;27;19958;-47
2021/06/10 11:11:47;;;;;;;;;;;;;;;;;;3553061;27;19934;-51
2021/06/10 11:13:28;;;;;;;;;;;;;;;;;;3557591;27;19931;-46
2021/06/10 11:15:09;;;;;;;;;;;;;;;;;;3565039;27;19980;-44
2021/06/10 11:16:50;;;;;;;;;;;;;;;;;;3552728;27;20017;-46
2021/06/10 11:18:30;;;;;;;;;;;;;;;;;;3555784;27;19957;-46
2021/06/10 11:20:14;;;;;;;;;;;;;;;;;;3553016;27;20428;-47
2021/06/10 11:21:55;;;;;;;;;;;;;;;;;;3555929;27;20658;-47
2021/06/10 11:23:35;;;;;;;;;;;;;;;;;;3553018;27;19933;-50
2021/06/10 11:25:16;;;;;;;;;;;;;;;;;;3555541;27;19938;-49
2021/06/10 11:26:57;;;;;;;;;;;;;;;;;;3555054;27;19927;-51
2021/06/10 11:28:38;;;;;;;;;;;;;;;;;;3552575;27;20402;-48
2021/06/10 11:30:21;;;;;;;;;;;;;;;;;;3554304;27;20333;-51